createdAt,value
2022-11-29T00:00:43.454Z,-34
2022-11-29T00:01:49.733Z,-34
2022-11-29T00:02:56.004Z,-34
2022-11-29T00:04:02.275Z,-34
2022-11-29T00:05:08.553Z,-34
2022-11-29T00:06:14.819Z,-35
2022-11-29T00:07:21.092Z,-34
2022-11-29T00:08:27.368Z,-34
2022-11-29T00:09:33.631Z,-34
2022-11-29T00:10:39.905Z,-34
2022-11-29T00:11:46.177Z,-33
2022-11-29T00:12:52.459Z,-34
2022-11-29T00:13:57.743Z,-34
2022-11-29T00:15:04.015Z,-34
2022-11-29T00:16:10.298Z,-34
2022-11-29T00:17:16.556Z,-35
2022-11-29T00:18:22.833Z,-34
2022-11-29T00:19:29.099Z,-34
2022-11-29T00:20:35.370Z,-34
2022-11-29T00:21:40.673Z,-34
2022-11-29T00:22:45.961Z,-33
2022-11-29T00:23:51.257Z,-34
2022-11-29T00:24:56.544Z,-34
2022-11-29T00:26:02.818Z,-34
2022-11-29T00:27:09.091Z,-34
2022-11-29T00:28:15.362Z,-34
2022-11-29T00:29:21.635Z,-34
2022-11-29T00:30:27.909Z,-34
2022-11-29T00:31:34.203Z,-34
2022-11-29T00:32:40.457Z,-35
2022-11-29T00:33:46.724Z,-34
2022-11-29T00:34:52.996Z,-34
2022-11-29T00:35:59.269Z,-34
2022-11-29T00:37:05.543Z,-34
2022-11-29T00:38:11.815Z,-33
2022-11-29T00:39:17.100Z,-34
2022-11-29T00:40:23.374Z,-34
2022-11-29T00:41:29.644Z,-34
2022-11-29T00:42:35.918Z,-34
2022-11-29T00:43:42.193Z,-33
2022-11-29T00:44:48.465Z,-34
2022-11-29T00:45:54.736Z,-34
2022-11-29T00:47:00.036Z,-33
2022-11-29T00:48:05.324Z,-34
2022-11-29T00:49:11.593Z,-32
2022-11-29T00:50:16.898Z,-34
2022-11-29T00:51:22.190Z,-34
2022-11-29T00:52:28.455Z,-34
2022-11-29T00:53:34.722Z,-34
2022-11-29T00:54:40.995Z,-34
2022-11-29T00:55:47.275Z,-34
2022-11-29T00:56:53.533Z,-34
2022-11-29T00:57:59.811Z,-34
2022-11-29T00:59:06.084Z,-34
2022-11-29T01:00:12.356Z,-34
2022-11-29T01:01:18.629Z,-34
2022-11-29T01:02:24.915Z,-32
2022-11-29T01:03:31.178Z,-33
2022-11-29T01:04:37.451Z,-32
2022-11-29T01:05:42.738Z,-34
2022-11-29T01:06:49.008Z,-33
2022-11-29T01:07:55.283Z,-34
2022-11-29T01:09:01.552Z,-35
2022-11-29T01:10:07.820Z,-34
2022-11-29T01:11:14.085Z,-33
2022-11-29T01:12:20.369Z,-33
2022-11-29T01:13:25.675Z,-34
2022-11-29T01:14:30.950Z,-34
2022-11-29T01:15:36.260Z,-34
2022-11-29T01:16:41.546Z,-34
2022-11-29T01:17:47.817Z,-34
2022-11-29T01:18:54.091Z,-33
2022-11-29T01:20:00.374Z,-33
2022-11-29T01:21:06.634Z,-34
2022-11-29T01:22:12.911Z,-34
2022-11-29T01:23:19.175Z,-34
2022-11-29T01:24:25.444Z,-35
2022-11-29T01:25:31.716Z,-34
2022-11-29T01:26:37.991Z,-34
2022-11-29T01:27:44.268Z,-36
2022-11-29T01:28:50.600Z,-33
2022-11-29T01:29:56.809Z,-34
2022-11-29T01:31:02.100Z,-34
2022-11-29T01:32:08.374Z,-33
2022-11-29T01:33:14.642Z,-34
2022-11-29T01:34:20.919Z,-33
2022-11-29T01:35:27.188Z,-34
2022-11-29T01:36:33.461Z,-34
2022-11-29T01:37:39.734Z,-34
2022-11-29T01:38:45.034Z,-35
2022-11-29T01:39:50.320Z,-34
2022-11-29T01:40:56.593Z,-34
2022-11-29T01:42:01.892Z,-33
2022-11-29T01:43:07.180Z,-34
2022-11-29T01:44:13.453Z,-33
2022-11-29T01:45:19.725Z,-33
2022-11-29T01:46:25.990Z,-34
2022-11-29T01:47:32.273Z,-33
2022-11-29T01:48:38.539Z,-33
2022-11-29T01:49:44.814Z,-34
2022-11-29T01:50:51.131Z,-32
2022-11-29T01:51:57.362Z,-34
2022-11-29T01:53:03.624Z,-33
2022-11-29T01:54:09.907Z,-33
2022-11-29T01:55:16.177Z,-34
2022-11-29T01:56:22.446Z,-34
2022-11-29T01:57:27.730Z,-33
2022-11-29T01:58:34.007Z,-34
2022-11-29T01:59:40.290Z,-32
2022-11-29T02:00:46.551Z,-34
2022-11-29T02:01:52.823Z,-34
2022-11-29T02:02:59.108Z,-34
2022-11-29T02:04:05.367Z,-32
2022-11-29T02:05:10.661Z,-33
2022-11-29T02:06:15.953Z,-33
2022-11-29T02:07:21.258Z,-34
2022-11-29T02:08:26.542Z,-34
2022-11-29T02:09:32.813Z,-34
2022-11-29T02:10:39.134Z,-32
2022-11-29T02:11:45.352Z,-33
2022-11-29T02:12:51.629Z,-33
2022-11-29T02:13:57.895Z,-33
2022-11-29T02:15:04.171Z,-32
2022-11-29T02:16:10.443Z,-33
2022-11-29T02:17:16.716Z,-33
2022-11-29T02:18:22.989Z,-34
2022-11-29T02:19:29.259Z,-32
2022-11-29T02:20:35.531Z,-33
2022-11-29T02:21:41.800Z,-34
2022-11-29T02:22:47.090Z,-32
2022-11-29T02:23:53.385Z,-33
2022-11-29T02:24:59.637Z,-35
2022-11-29T02:26:05.908Z,-34
2022-11-29T02:27:12.179Z,-33
2022-11-29T02:28:18.459Z,-34
2022-11-29T02:29:24.738Z,-32
2022-11-29T02:30:30.034Z,-33
2022-11-29T02:31:35.322Z,-34
2022-11-29T02:32:40.613Z,-32
2022-11-29T02:33:45.905Z,-33
2022-11-29T02:34:52.174Z,-33
2022-11-29T02:35:58.451Z,-31
2022-11-29T02:37:04.724Z,-32
2022-11-29T02:38:10.991Z,-33
2022-11-29T02:39:17.263Z,-33
2022-11-29T02:40:23.531Z,-33
2022-11-29T02:41:29.821Z,-32
2022-11-29T02:42:36.078Z,-32
2022-11-29T02:43:42.360Z,-32
2022-11-29T02:44:48.624Z,-33
2022-11-29T02:45:54.897Z,-33
2022-11-29T02:47:01.181Z,-33
2022-11-29T02:48:06.455Z,-34
2022-11-29T02:49:12.731Z,-33
2022-11-29T02:50:18.998Z,-32
2022-11-29T02:51:25.269Z,-33
2022-11-29T02:52:31.551Z,-34
2022-11-29T02:53:37.820Z,-33
2022-11-29T02:54:44.083Z,-32
2022-11-29T02:55:49.380Z,-34
2022-11-29T02:56:54.678Z,-32
2022-11-29T02:57:59.980Z,-33
2022-11-29T02:59:05.254Z,-32
2022-11-29T03:00:11.545Z,-33
2022-11-29T03:01:17.811Z,-33
2022-11-29T03:02:24.074Z,-32
2022-11-29T03:03:30.352Z,-31
2022-11-29T03:04:36.637Z,-33
2022-11-29T03:05:42.897Z,-34
2022-11-29T03:06:49.171Z,-33
2022-11-29T03:07:55.446Z,-33
2022-11-29T03:09:00.734Z,-33
2022-11-29T03:10:07.003Z,-33
2022-11-29T03:11:13.280Z,-32
2022-11-29T03:12:19.553Z,-32
2022-11-29T03:13:25.825Z,-31
2022-11-29T03:14:32.085Z,-33
2022-11-29T03:15:38.366Z,-34
2022-11-29T03:16:44.643Z,-33
2022-11-29T03:17:50.916Z,-32
2022-11-29T03:18:57.184Z,-33
2022-11-29T03:20:03.450Z,-33
2022-11-29T03:21:09.728Z,-33
2022-11-29T03:22:15.026Z,-33
2022-11-29T03:23:20.309Z,-34
2022-11-29T03:24:25.618Z,-34
2022-11-29T03:25:30.917Z,-32
2022-11-29T03:26:37.169Z,-32
2022-11-29T03:27:43.450Z,-33
2022-11-29T03:28:49.724Z,-34
2022-11-29T03:29:55.987Z,-32
2022-11-29T03:31:02.260Z,-32
2022-11-29T03:32:08.538Z,-32
2022-11-29T03:33:14.828Z,-34
2022-11-29T03:34:21.085Z,-34
2022-11-29T03:35:27.354Z,-33
2022-11-29T03:36:33.647Z,-32
2022-11-29T03:37:39.895Z,-34
2022-11-29T03:38:46.169Z,-32
2022-11-29T03:39:51.466Z,-33
2022-11-29T03:40:57.731Z,-33
2022-11-29T03:42:04.002Z,-31
2022-11-29T03:43:10.279Z,-32
2022-11-29T03:44:16.543Z,-33
2022-11-29T03:45:22.824Z,-32
2022-11-29T03:46:29.091Z,-33
2022-11-29T03:47:34.407Z,-32
2022-11-29T03:48:39.678Z,-33
2022-11-29T03:49:45.950Z,-33
2022-11-29T03:50:52.237Z,-33
2022-11-29T03:51:58.494Z,-33
2022-11-29T03:53:03.801Z,-32
2022-11-29T03:54:09.083Z,-32
2022-11-29T03:55:15.352Z,-33
2022-11-29T03:56:21.633Z,-33
2022-11-29T03:57:27.897Z,-33
2022-11-29T03:58:34.171Z,-32
2022-11-29T03:59:40.440Z,-32
2022-11-29T04:00:46.718Z,-32
2022-11-29T04:01:52.987Z,-32
2022-11-29T04:02:59.260Z,-31
2022-11-29T04:04:05.526Z,-32
2022-11-29T04:05:11.811Z,-32
2022-11-29T04:06:18.096Z,-34
2022-11-29T04:07:24.347Z,-33
2022-11-29T04:08:29.640Z,-32
2022-11-29T04:09:35.904Z,-33
2022-11-29T04:10:42.184Z,-34
2022-11-29T04:11:48.447Z,-33
2022-11-29T04:12:54.719Z,-31
2022-11-29T04:14:00.997Z,-33
2022-11-29T04:15:07.265Z,-32
2022-11-29T04:16:12.570Z,-32
2022-11-29T04:17:17.858Z,-32
2022-11-29T04:18:23.155Z,-33
2022-11-29T04:19:28.447Z,-33
2022-11-29T04:20:34.711Z,-31
2022-11-29T04:21:40.989Z,-33
2022-11-29T04:22:47.279Z,-34
2022-11-29T04:23:53.532Z,-34
2022-11-29T04:24:59.812Z,-32
2022-11-29T04:26:06.081Z,-32
2022-11-29T04:27:12.348Z,-33
2022-11-29T04:28:18.621Z,-32
2022-11-29T04:29:24.890Z,-33
2022-11-29T04:30:31.166Z,-32
2022-11-29T04:31:37.439Z,-33
2022-11-29T04:32:43.713Z,-32
2022-11-29T04:33:48.997Z,-32
2022-11-29T04:34:55.272Z,-34
2022-11-29T04:36:01.547Z,-33
2022-11-29T04:37:07.814Z,-33
2022-11-29T04:38:14.106Z,-31
2022-11-29T04:39:20.356Z,-32
2022-11-29T04:40:26.633Z,-31
2022-11-29T04:41:32.910Z,-33
2022-11-29T04:42:39.167Z,-32
2022-11-29T04:43:45.446Z,-33
2022-11-29T04:44:51.717Z,-34
2022-11-29T04:45:57.993Z,-32
2022-11-29T04:47:04.265Z,-33
2022-11-29T04:48:09.555Z,-33
2022-11-29T04:49:15.825Z,-33
2022-11-29T04:50:22.097Z,-33
2022-11-29T04:51:28.371Z,-32
2022-11-29T04:52:34.639Z,-32
2022-11-29T04:53:40.927Z,-33
2022-11-29T04:54:47.202Z,-32
2022-11-29T04:55:53.477Z,-33
2022-11-29T04:56:59.733Z,-33
2022-11-29T04:58:06.006Z,-33
2022-11-29T04:59:12.278Z,-33
2022-11-29T05:00:18.566Z,-33
2022-11-29T05:01:23.852Z,-32
2022-11-29T05:02:29.130Z,-32
2022-11-29T05:03:34.435Z,-32
2022-11-29T05:04:39.715Z,-32
2022-11-29T05:05:45.995Z,-31
2022-11-29T05:06:52.267Z,-32
2022-11-29T05:07:58.542Z,-31
2022-11-29T05:09:04.808Z,-31
2022-11-29T05:10:11.092Z,-32
2022-11-29T05:11:17.357Z,-32
2022-11-29T05:12:23.632Z,-34
2022-11-29T05:13:29.895Z,-32
2022-11-29T05:14:36.162Z,-33
2022-11-29T05:15:42.445Z,-33
2022-11-29T05:16:48.720Z,-32
2022-11-29T05:17:54.989Z,-32
2022-11-29T05:19:00.289Z,-32
2022-11-29T05:20:06.606Z,-33
2022-11-29T05:21:12.826Z,-34
2022-11-29T05:22:19.093Z,-32
2022-11-29T05:23:25.374Z,-34
2022-11-29T05:24:31.701Z,-32
2022-11-29T05:25:37.951Z,-30
2022-11-29T05:26:43.237Z,-32
2022-11-29T05:27:48.503Z,-33
2022-11-29T05:28:54.801Z,-32
2022-11-29T05:30:01.040Z,-33
2022-11-29T05:31:06.349Z,-33
2022-11-29T05:32:11.628Z,-33
2022-11-29T05:33:17.905Z,-31
2022-11-29T05:34:24.168Z,-32
2022-11-29T05:35:30.442Z,-32
2022-11-29T05:36:36.729Z,-33
2022-11-29T05:37:42.990Z,-30
2022-11-29T05:38:49.264Z,-31
2022-11-29T05:39:55.535Z,-32
2022-11-29T05:41:01.809Z,-33
2022-11-29T05:42:08.080Z,-32
2022-11-29T05:43:14.345Z,-33
2022-11-29T05:44:20.628Z,-33
2022-11-29T05:45:26.907Z,-33
2022-11-29T05:46:32.186Z,-32
2022-11-29T05:47:38.457Z,-33
2022-11-29T05:48:44.735Z,-31
2022-11-29T05:49:50.999Z,-32
2022-11-29T05:50:57.273Z,-33
2022-11-29T05:52:03.546Z,-32
2022-11-29T05:53:09.823Z,-33
2022-11-29T05:54:15.118Z,-31
2022-11-29T05:55:20.401Z,-34
2022-11-29T05:56:26.677Z,-33
2022-11-29T05:57:31.980Z,-33
2022-11-29T05:58:37.263Z,-32
2022-11-29T05:59:43.538Z,-32
2022-11-29T06:00:49.811Z,-32
2022-11-29T06:01:56.134Z,-33
2022-11-29T06:03:02.349Z,-34
2022-11-29T06:04:08.624Z,-33
2022-11-29T06:05:14.897Z,-32
2022-11-29T06:06:21.166Z,-32
2022-11-29T06:07:27.454Z,-32
2022-11-29T06:08:33.713Z,-33
2022-11-29T06:09:39.998Z,-34
2022-11-29T06:10:46.259Z,-31
2022-11-29T06:11:52.531Z,-32
2022-11-29T06:12:57.815Z,-31
2022-11-29T06:14:04.087Z,-34
2022-11-29T06:15:10.359Z,-31
2022-11-29T06:16:16.642Z,-31
2022-11-29T06:17:22.901Z,-33
2022-11-29T06:18:29.182Z,-32
2022-11-29T06:19:35.464Z,-33
2022-11-29T06:20:40.748Z,-34
2022-11-29T06:21:46.043Z,-34
2022-11-29T06:22:52.312Z,-32
2022-11-29T06:23:58.572Z,-32
2022-11-29T06:25:04.850Z,-32
2022-11-29T06:26:10.163Z,-33
2022-11-29T06:27:15.432Z,-32
2022-11-29T06:28:21.712Z,-33
2022-11-29T06:29:27.985Z,-33
2022-11-29T06:30:34.257Z,-32
2022-11-29T06:31:40.527Z,-34
2022-11-29T06:32:46.799Z,-32
2022-11-29T06:33:53.077Z,-34
2022-11-29T06:34:59.360Z,-32
2022-11-29T06:36:05.619Z,-34
2022-11-29T06:37:11.887Z,-33
2022-11-29T06:38:18.159Z,-33
2022-11-29T06:39:24.431Z,-34
2022-11-29T06:40:30.707Z,-33
2022-11-29T06:41:35.991Z,-33
2022-11-29T06:42:42.268Z,-34
2022-11-29T06:43:48.542Z,-32
2022-11-29T06:44:54.807Z,-33
2022-11-29T06:46:01.089Z,-34
2022-11-29T06:47:07.349Z,-32
2022-11-29T06:48:13.631Z,-33
2022-11-29T06:49:19.917Z,-31
2022-11-29T06:50:25.192Z,-32
2022-11-29T06:51:31.472Z,-34
2022-11-29T06:52:37.738Z,-33
2022-11-29T06:53:44.004Z,-33
2022-11-29T06:54:50.303Z,-33
2022-11-29T06:55:56.555Z,-31
2022-11-29T06:57:02.825Z,-33
2022-11-29T06:58:09.095Z,-34
2022-11-29T06:59:15.371Z,-34
2022-11-29T07:00:21.638Z,-31
2022-11-29T07:01:27.912Z,-33
2022-11-29T07:02:34.187Z,-31
2022-11-29T07:03:40.454Z,-32
2022-11-29T07:04:45.743Z,-32
2022-11-29T07:05:52.024Z,-34
2022-11-29T07:06:58.291Z,-34
2022-11-29T07:08:04.577Z,-33
2022-11-29T07:09:10.834Z,-33
2022-11-29T07:10:17.110Z,-33
2022-11-29T07:11:23.376Z,-31
2022-11-29T07:12:29.644Z,-32
2022-11-29T07:13:35.954Z,-33
2022-11-29T07:14:42.204Z,-31
2022-11-29T07:15:48.473Z,-31
2022-11-29T07:16:54.737Z,-32
2022-11-29T07:18:01.013Z,-31
2022-11-29T07:19:06.304Z,-33
2022-11-29T07:20:12.575Z,-32
2022-11-29T07:21:18.846Z,-32
2022-11-29T07:22:25.167Z,-32
2022-11-29T07:23:31.383Z,-32
2022-11-29T07:24:37.690Z,-32
2022-11-29T07:25:43.930Z,-33
2022-11-29T07:26:50.200Z,-31
2022-11-29T07:27:56.472Z,-32
2022-11-29T07:29:02.747Z,-34
2022-11-29T07:30:09.017Z,-34
2022-11-29T07:31:15.338Z,-31
2022-11-29T07:32:21.559Z,-33
2022-11-29T07:33:26.862Z,-32
2022-11-29T07:34:33.119Z,-32
2022-11-29T07:35:39.400Z,-31
2022-11-29T07:36:45.669Z,-31
2022-11-29T07:37:51.939Z,-31
2022-11-29T07:38:58.218Z,-34
2022-11-29T07:40:04.486Z,-32
2022-11-29T07:41:10.752Z,-32
2022-11-29T07:42:17.021Z,-33
2022-11-29T07:43:23.300Z,-32
2022-11-29T07:44:29.568Z,-32
2022-11-29T07:45:35.871Z,-31
2022-11-29T07:46:42.228Z,-32
2022-11-29T07:47:47.421Z,-33
2022-11-29T07:48:53.704Z,-31
2022-11-29T07:49:59.951Z,-31
2022-11-29T07:51:06.222Z,-31
2022-11-29T07:52:12.501Z,-31
2022-11-29T07:53:18.771Z,-31
2022-11-29T07:54:25.035Z,-33
2022-11-29T07:55:31.382Z,-31
2022-11-29T07:56:37.600Z,-31
2022-11-29T07:57:43.863Z,-31
2022-11-29T07:58:50.129Z,-31
2022-11-29T07:59:55.427Z,-31
2022-11-29T08:01:01.722Z,-30
2022-11-29T08:02:07.015Z,-31
2022-11-29T08:03:12.295Z,-31
2022-11-29T08:04:18.569Z,-31
2022-11-29T08:05:24.874Z,-32
2022-11-29T08:06:31.106Z,-32
2022-11-29T08:07:37.399Z,-31
2022-11-29T08:08:43.685Z,-32
2022-11-29T08:09:49.918Z,-30
2022-11-29T08:10:56.189Z,-32
2022-11-29T08:12:02.464Z,-33
2022-11-29T08:13:08.751Z,-32
2022-11-29T08:14:15.018Z,-31
2022-11-29T08:15:21.274Z,-30
2022-11-29T08:16:27.548Z,-31
2022-11-29T08:17:32.841Z,-33
2022-11-29T08:18:39.114Z,-31
2022-11-29T08:19:45.387Z,-31
2022-11-29T08:20:51.649Z,-31
2022-11-29T08:21:57.927Z,-31
2022-11-29T08:23:04.194Z,-31
2022-11-29T08:24:10.473Z,-34
2022-11-29T08:25:16.740Z,-32
2022-11-29T08:26:23.055Z,-31
2022-11-29T08:27:29.288Z,-31
2022-11-29T08:28:35.626Z,-31
2022-11-29T08:29:41.829Z,-31
2022-11-29T08:30:48.131Z,-30
2022-11-29T08:31:53.391Z,-30
2022-11-29T08:32:59.665Z,-31
2022-11-29T08:34:05.937Z,-31
2022-11-29T08:35:12.220Z,-30
2022-11-29T08:36:18.485Z,-31
2022-11-29T08:37:24.753Z,-30
2022-11-29T08:38:30.062Z,-31
2022-11-29T08:39:35.355Z,-30
2022-11-29T08:40:41.616Z,-29
2022-11-29T08:41:47.883Z,-29
2022-11-29T08:42:54.157Z,-31
2022-11-29T08:44:00.428Z,-30
2022-11-29T08:45:05.735Z,-30
2022-11-29T08:46:11.017Z,-32
2022-11-29T08:48:23.569Z,-31
2022-11-29T08:49:29.835Z,-31
2022-11-29T08:50:36.100Z,-30
2022-11-29T08:51:42.381Z,-30
2022-11-29T08:52:48.665Z,-31
2022-11-29T08:53:54.970Z,-31
2022-11-29T08:55:01.188Z,-31
2022-11-29T08:56:07.469Z,-30
2022-11-29T08:57:13.737Z,-31
2022-11-29T08:58:20.012Z,-31
2022-11-29T08:59:26.321Z,-30
2022-11-29T09:00:31.653Z,-31
2022-11-29T09:01:38.041Z,-29
2022-11-29T09:02:44.148Z,-30
2022-11-29T09:03:50.534Z,-30
2022-11-29T09:04:56.799Z,-31
2022-11-29T09:06:02.927Z,-30
2022-11-29T09:07:09.216Z,-32
2022-11-29T09:08:15.499Z,-30
2022-11-29T09:09:20.775Z,-30
2022-11-29T09:10:26.058Z,-30
2022-11-29T09:11:31.392Z,-31
2022-11-29T09:12:36.683Z,-30
2022-11-29T09:13:42.921Z,-30
2022-11-29T09:14:49.196Z,-29
2022-11-29T09:15:55.465Z,-31
2022-11-29T09:17:01.768Z,-31
2022-11-29T09:18:08.006Z,-30
2022-11-29T09:19:14.278Z,-30
2022-11-29T09:20:20.583Z,-29
2022-11-29T09:21:26.827Z,-30
2022-11-29T09:22:33.145Z,-31
2022-11-29T09:23:39.370Z,-31
2022-11-29T09:24:45.639Z,-30
2022-11-29T09:25:51.918Z,-31
2022-11-29T09:26:57.199Z,-29
2022-11-29T09:28:03.476Z,-30
2022-11-29T09:29:09.866Z,-29
2022-11-29T09:30:16.014Z,-31
2022-11-29T09:31:22.292Z,-31
2022-11-29T09:32:28.581Z,-31
2022-11-29T09:33:34.837Z,-30
2022-11-29T09:34:41.132Z,-31
2022-11-29T09:35:47.375Z,-30
2022-11-29T09:36:53.647Z,-31
2022-11-29T09:37:59.965Z,-30
2022-11-29T09:39:06.219Z,-31
2022-11-29T09:40:12.484Z,-31
2022-11-29T09:41:17.755Z,-31
2022-11-29T09:42:24.027Z,-31
2022-11-29T09:43:30.301Z,-30
2022-11-29T09:44:35.601Z,-28
2022-11-29T09:45:40.892Z,-30
2022-11-29T09:46:47.156Z,-31
2022-11-29T09:47:52.454Z,-29
2022-11-29T09:48:57.746Z,-31
2022-11-29T09:50:04.015Z,-28
2022-11-29T09:51:10.293Z,-28
2022-11-29T09:52:16.613Z,-30
2022-11-29T09:53:22.833Z,-29
2022-11-29T09:54:29.114Z,-28
2022-11-29T09:55:35.376Z,-28
2022-11-29T09:56:41.652Z,-28
2022-11-29T09:57:47.922Z,-29
2022-11-29T09:58:54.192Z,-29
2022-11-29T10:00:00.495Z,-30
2022-11-29T10:01:06.735Z,-30
2022-11-29T10:02:13.036Z,-29
2022-11-29T10:03:18.320Z,-29
2022-11-29T10:04:24.565Z,-28
2022-11-29T10:05:30.841Z,-29
2022-11-29T10:06:37.110Z,-29
2022-11-29T10:07:43.412Z,-29
2022-11-29T10:08:49.663Z,-29
2022-11-29T10:09:55.931Z,-29
2022-11-29T10:11:01.240Z,-28
2022-11-29T10:12:06.514Z,-29
2022-11-29T10:13:11.814Z,-28
2022-11-29T10:14:17.106Z,-31
2022-11-29T10:15:23.440Z,-29
2022-11-29T10:16:29.663Z,-28
2022-11-29T10:17:35.916Z,-28
2022-11-29T10:18:42.191Z,-29
2022-11-29T10:19:48.461Z,-29
2022-11-29T10:20:54.725Z,-28
2022-11-29T10:22:01.009Z,-29
2022-11-29T10:23:07.278Z,-28
2022-11-29T10:24:13.554Z,-29
2022-11-29T10:25:19.903Z,-28
2022-11-29T10:26:26.166Z,-28
2022-11-29T10:27:32.369Z,-29
2022-11-29T10:28:37.701Z,-28
2022-11-29T10:29:43.975Z,-28
2022-11-29T10:30:50.209Z,-28
2022-11-29T10:31:55.490Z,-28
2022-11-29T10:33:01.782Z,-28
2022-11-29T10:34:08.032Z,-27
2022-11-29T10:35:14.364Z,-28
2022-11-29T10:36:20.613Z,-28
2022-11-29T10:37:26.851Z,-30
2022-11-29T10:38:33.125Z,-28
2022-11-29T10:39:39.400Z,-28
2022-11-29T10:40:45.664Z,-28
2022-11-29T10:41:51.965Z,-28
2022-11-29T10:42:58.215Z,-27
2022-11-29T10:44:04.496Z,-28
2022-11-29T10:45:10.784Z,-28
2022-11-29T10:46:16.044Z,-28
2022-11-29T10:47:22.314Z,-27
2022-11-29T10:48:28.814Z,-28
2022-11-29T10:49:33.884Z,-28
2022-11-29T10:50:39.173Z,-28
2022-11-29T10:51:45.569Z,-28
2022-11-29T10:52:50.752Z,-28
2022-11-29T10:53:56.032Z,-28
2022-11-29T10:55:02.315Z,-27
2022-11-29T10:56:08.610Z,-28
2022-11-29T10:57:14.961Z,-27
2022-11-29T10:58:21.168Z,-28
2022-11-29T10:59:27.416Z,-28
2022-11-29T11:00:33.691Z,-28
2022-11-29T11:01:39.986Z,-29
2022-11-29T11:02:46.217Z,-28
2022-11-29T11:03:52.488Z,-28
2022-11-29T11:04:58.757Z,-28
2022-11-29T11:06:05.118Z,-28
2022-11-29T11:07:11.306Z,-28
2022-11-29T11:08:16.586Z,-26
2022-11-29T11:09:22.869Z,-27
2022-11-29T11:10:29.142Z,-28
2022-11-29T11:11:35.423Z,-28
2022-11-29T11:12:41.674Z,-28
2022-11-29T11:13:47.950Z,-28
2022-11-29T11:14:54.233Z,-26
2022-11-29T11:15:59.523Z,-28
2022-11-29T11:17:04.806Z,-27
2022-11-29T11:18:11.082Z,-28
2022-11-29T11:19:17.344Z,-27
2022-11-29T11:20:23.619Z,-28
2022-11-29T11:21:29.893Z,-28
2022-11-29T11:22:36.170Z,-28
2022-11-29T11:23:42.437Z,-28
2022-11-29T11:24:48.706Z,-28
2022-11-29T11:25:55.030Z,-28
2022-11-29T11:27:01.265Z,-27
2022-11-29T11:28:07.523Z,-28
2022-11-29T11:29:13.831Z,-27
2022-11-29T11:30:20.095Z,-28
2022-11-29T11:31:25.376Z,-28
2022-11-29T11:32:31.698Z,-28
2022-11-29T11:33:37.902Z,-27
2022-11-29T11:34:44.196Z,-28
2022-11-29T11:35:50.447Z,-27
2022-11-29T11:36:56.721Z,-28
2022-11-29T11:38:03.004Z,-28
2022-11-29T11:39:08.286Z,-28
2022-11-29T11:40:13.578Z,-28
2022-11-29T11:41:18.873Z,-28
2022-11-29T11:42:24.170Z,-28
2022-11-29T11:43:30.505Z,-28
2022-11-29T11:44:36.715Z,-26
2022-11-29T11:45:43.016Z,-27
2022-11-29T11:46:49.254Z,-27
2022-11-29T11:47:55.531Z,-28
2022-11-29T11:49:01.798Z,-27
2022-11-29T11:50:08.099Z,-28
2022-11-29T11:51:14.365Z,-28
2022-11-29T11:52:20.718Z,-28
2022-11-29T11:53:26.919Z,-28
2022-11-29T11:54:33.176Z,-28
2022-11-29T11:55:39.462Z,-28
2022-11-29T11:56:44.788Z,-28
2022-11-29T11:57:50.993Z,-28
2022-11-29T11:58:57.274Z,-28
2022-11-29T12:00:03.560Z,-28
2022-11-29T12:01:09.798Z,-27
2022-11-29T12:02:16.293Z,-26
2022-11-29T12:03:22.522Z,-28
2022-11-29T12:04:27.657Z,-28
2022-11-29T12:05:33.019Z,-28
2022-11-29T12:06:39.276Z,-28
2022-11-29T12:07:44.512Z,-28
2022-11-29T12:08:49.878Z,-28
2022-11-29T12:09:56.178Z,-28
2022-11-29T12:11:02.427Z,-28
2022-11-29T12:12:08.678Z,-27
2022-11-29T12:13:14.882Z,-28
2022-11-29T12:14:21.164Z,-28
2022-11-29T12:15:27.535Z,-28
2022-11-29T12:16:33.710Z,-28
2022-11-29T12:17:40.102Z,-27
2022-11-29T12:18:46.269Z,-28
2022-11-29T12:19:52.511Z,-27
2022-11-29T12:20:58.794Z,-28
2022-11-29T12:22:05.218Z,-27
2022-11-29T12:23:10.537Z,-28
2022-11-29T12:24:16.611Z,-28
2022-11-29T12:25:23.096Z,-28
2022-11-29T12:26:29.331Z,-27
2022-11-29T12:27:35.438Z,-28
2022-11-29T12:28:41.710Z,-29
2022-11-29T12:29:47.988Z,-28
2022-11-29T12:30:53.279Z,-27
2022-11-29T12:31:58.571Z,-28
2022-11-29T12:33:04.848Z,-27
2022-11-29T12:34:11.116Z,-28
2022-11-29T12:35:17.393Z,-28
2022-11-29T12:36:22.680Z,-27
2022-11-29T12:37:27.965Z,-28
2022-11-29T12:38:34.250Z,-27
2022-11-29T12:39:40.517Z,-27
2022-11-29T12:40:46.786Z,-28
2022-11-29T12:41:53.064Z,-28
2022-11-29T12:42:59.332Z,-27
2022-11-29T12:44:05.633Z,-27
2022-11-29T12:45:11.903Z,-25
2022-11-29T12:46:18.176Z,-28
2022-11-29T12:47:24.421Z,-28
2022-11-29T12:48:30.757Z,-26
2022-11-29T12:49:37.131Z,-28
2022-11-29T12:50:43.353Z,-29
2022-11-29T12:51:48.656Z,-28
2022-11-29T12:52:54.802Z,-27
2022-11-29T12:54:01.063Z,-28
2022-11-29T12:55:07.343Z,-28
2022-11-29T12:56:13.644Z,-28
2022-11-29T12:57:19.881Z,-28
2022-11-29T12:58:26.152Z,-29
2022-11-29T12:59:31.448Z,-27
2022-11-29T13:00:36.752Z,-28
2022-11-29T13:01:42.199Z,-28
2022-11-29T13:02:47.450Z,-27
2022-11-29T13:03:53.711Z,-25
2022-11-29T13:04:59.869Z,-28
2022-11-29T13:06:06.140Z,-28
2022-11-29T13:07:12.420Z,-28
2022-11-29T13:08:18.688Z,-28
2022-11-29T13:09:24.964Z,-28
2022-11-29T13:10:31.233Z,-28
2022-11-29T13:11:37.582Z,-28
2022-11-29T13:12:43.901Z,-27
2022-11-29T13:13:50.191Z,-28
2022-11-29T13:14:56.319Z,-27
2022-11-29T13:16:02.584Z,-28
2022-11-29T13:17:07.884Z,-28
2022-11-29T13:18:14.322Z,-27
2022-11-29T13:19:20.445Z,-28
2022-11-29T13:20:26.841Z,-27
2022-11-29T13:21:33.141Z,-28
2022-11-29T13:22:39.243Z,-28
2022-11-29T13:23:45.617Z,-28
2022-11-29T13:24:50.894Z,-28
2022-11-29T13:25:56.168Z,-28
2022-11-29T13:27:01.448Z,-28
2022-11-29T13:28:06.755Z,-28
2022-11-29T13:29:13.022Z,-27
2022-11-29T13:30:19.232Z,-27
2022-11-29T13:31:25.558Z,-28
2022-11-29T13:32:31.838Z,-28
2022-11-29T13:33:38.181Z,-27
2022-11-29T13:34:44.398Z,-28
2022-11-29T13:35:50.638Z,-28
2022-11-29T13:36:56.881Z,-28
2022-11-29T13:38:03.221Z,-28
2022-11-29T13:39:09.404Z,-28
2022-11-29T13:40:15.687Z,-29
2022-11-29T13:41:21.950Z,-28
2022-11-29T13:42:27.243Z,-28
2022-11-29T13:43:33.577Z,-27
2022-11-29T13:44:39.806Z,-28
2022-11-29T13:45:46.093Z,-27
2022-11-29T13:46:52.386Z,-28
2022-11-29T13:47:58.602Z,-28
2022-11-29T13:49:04.870Z,-28
2022-11-29T13:50:10.174Z,-28
2022-11-29T13:51:15.451Z,-27
2022-11-29T13:52:20.753Z,-29
2022-11-29T13:53:26.044Z,-27
2022-11-29T13:54:32.321Z,-25
2022-11-29T13:55:38.581Z,-27
2022-11-29T13:56:44.909Z,-28
2022-11-29T13:57:51.133Z,-28
2022-11-29T13:58:57.418Z,-25
2022-11-29T14:00:03.849Z,-28
2022-11-29T14:01:10.174Z,-28
2022-11-29T14:02:16.215Z,-27
2022-11-29T14:03:22.490Z,-28
2022-11-29T14:04:28.762Z,-28
2022-11-29T14:05:35.037Z,-28
2022-11-29T14:06:41.308Z,-27
2022-11-29T14:07:47.598Z,-27
2022-11-29T14:08:52.873Z,-25
2022-11-29T14:09:59.178Z,-28
2022-11-29T14:11:05.413Z,-28
2022-11-29T14:12:11.719Z,-28
2022-11-29T14:13:17.011Z,-27
2022-11-29T14:14:23.245Z,-28
2022-11-29T14:15:29.515Z,-28
2022-11-29T14:16:35.792Z,-27
2022-11-29T14:17:42.069Z,-27
2022-11-29T14:18:48.335Z,-29
2022-11-29T14:19:54.649Z,-27
2022-11-29T14:21:00.884Z,-28
2022-11-29T14:22:07.158Z,-28
2022-11-29T14:23:13.430Z,-28
2022-11-29T14:24:19.703Z,-28
2022-11-29T14:25:25.965Z,-28
2022-11-29T14:26:32.237Z,-27
2022-11-29T14:27:37.527Z,-27
2022-11-29T14:28:42.822Z,-27
2022-11-29T14:29:48.125Z,-28
2022-11-29T14:30:53.422Z,-27
2022-11-29T14:31:58.693Z,-28
2022-11-29T14:33:04.978Z,-26
2022-11-29T14:35:17.511Z,-28
2022-11-29T14:36:23.804Z,-28
2022-11-29T14:37:30.062Z,-28
2022-11-29T14:38:36.333Z,-28
2022-11-29T14:39:42.608Z,-28
2022-11-29T14:40:48.879Z,-28
2022-11-29T14:41:55.155Z,-28
2022-11-29T14:43:01.421Z,-28
2022-11-29T14:44:07.693Z,-28
2022-11-29T14:45:13.960Z,-28
2022-11-29T14:46:19.309Z,-28
2022-11-29T14:47:25.524Z,-27
2022-11-29T14:48:31.824Z,-28
2022-11-29T14:49:38.062Z,-28
2022-11-29T14:50:44.408Z,-28
2022-11-29T14:51:50.687Z,-27
2022-11-29T14:52:56.882Z,-28
2022-11-29T14:54:03.156Z,-27
2022-11-29T14:55:09.486Z,-28
2022-11-29T14:56:15.702Z,-28
2022-11-29T14:57:21.974Z,-26
2022-11-29T14:58:28.360Z,-28
2022-11-29T14:59:34.521Z,-28
2022-11-29T15:00:39.807Z,-30
2022-11-29T15:01:46.079Z,-28
2022-11-29T15:02:52.354Z,-28
2022-11-29T15:03:58.620Z,-28
2022-11-29T15:05:04.894Z,-30
2022-11-29T15:06:11.168Z,-29
2022-11-29T15:07:17.440Z,-28
2022-11-29T15:08:23.707Z,-29
2022-11-29T15:09:29.978Z,-28
2022-11-29T15:10:36.270Z,-28
2022-11-29T15:11:42.527Z,-29
2022-11-29T15:12:48.798Z,-28